Time;durP1;ratioP1;P1;durP2;ratioP2;P2;SDS_P1;SDS_P2;PMS_P1;PMS_P2;Temp;Humidity;BMP_temperature;BMP_pressure;BME280_temperature;BME280_humidity;BME280_pressure;Samples;Min_cycle;Max_cycle;Signal;HPM_P1;HPM_P2
2022/06/28 00:01:47;;;;;;;2.53;1.40;;;22.80;50.40;;;;;;7375496;19;20014;-83
2022/06/28 00:04:16;;;;;;;6.25;1.35;;;22.70;50.60;;;;;;7373282;19;20089;-83
2022/06/28 00:06:45;;;;;;;5.07;1.20;;;22.70;50.80;;;;;;7375752;19;20082;-84
2022/06/28 00:09:14;;;;;;;7.78;1.42;;;22.70;50.90;;;;;;7375399;19;20081;-83
2022/06/28 00:11:46;;;;;;;7.13;1.42;;;22.70;50.80;;;;;;7394763;19;20014;-83
2022/06/28 00:16:57;;;;;;;3.55;1.42;;;22.70;51.00;;;;;;7373300;19;20465;-83
2022/06/28 00:19:26;;;;;;;5.20;1.13;;;22.70;51.60;;;;;;7375993;19;20014;-83
2022/06/28 00:21:55;;;;;;;3.40;1.13;;;22.70;50.90;;;;;;7374298;19;20584;-84
2022/06/28 00:24:24;;;;;;;3.55;1.30;;;22.70;50.70;;;;;;7375326;19;20031;-84
2022/06/28 00:26:55;;;;;;;5.13;1.25;;;22.70;50.70;;;;;;7374738;19;20019;-83
2022/06/28 00:29:24;;;;;;;;;;;22.70;50.70;;;;;;7395260;19;20023;-84
2022/06/28 00:31:52;;;;;;;5.93;1.50;;;22.80;50.90;;;;;;7372874;19;19915;-83
2022/06/28 00:34:21;;;;;;;5.00;1.38;;;22.70;50.80;;;;;;7373618;19;20077;-83
2022/06/28 00:36:50;;;;;;;2.63;1.20;;;22.70;50.90;;;;;;7373676;19;20018;-83
2022/06/28 00:39:18;;;;;;;4.90;1.20;;;22.70;51.00;;;;;;7375320;19;20021;-83
2022/06/28 00:41:48;;;;;;;5.97;1.63;;;22.60;50.90;;;;;;7396875;19;20763;-82
2022/06/28 00:44:20;;;;;;;7.72;1.27;;;22.60;50.90;;;;;;7374252;19;20342;-82
2022/06/28 00:46:50;;;;;;;4.50;1.40;;;22.60;51.10;;;;;;7373107;19;20723;-82
2022/06/28 00:49:18;;;;;;;4.13;1.20;;;22.50;51.10;;;;;;7373145;19;20028;-83
2022/06/28 00:51:47;;;;;;;6.95;1.60;;;22.50;51.20;;;;;;7371608;19;20071;-83
2022/06/28 00:54:16;;;;;;;5.07;1.20;;;22.50;51.30;;;;;;7373069;19;20062;-83
2022/06/28 00:56:45;;;;;;;11.18;1.20;;;22.40;51.20;;;;;;7393882;19;20010;-84
2022/06/28 00:59:14;;;;;;;3.03;1.23;;;22.40;51.30;;;;;;7375918;19;20049;-83
2022/06/28 01:01:45;;;;;;;2.70;1.38;;;22.30;51.40;;;;;;7376136;19;20011;-83
2022/06/28 01:04:14;;;;;;;;;;;22.30;51.50;;;;;;7375481;19;20018;-84
2022/06/28 01:06:43;;;;;;;3.83;1.40;;;22.30;51.80;;;;;;7373690;19;19982;-83
2022/06/28 01:09:11;;;;;;;7.53;2.47;;;22.20;51.70;;;;;;7374864;19;20078;-83
2022/06/28 01:11:40;;;;;;;5.07;1.65;;;22.20;51.70;;;;;;7392916;19;20085;-83
2022/06/28 01:14:10;;;;;;;4.60;2.42;;;22.20;51.40;;;;;;7373840;19;20022;-83
2022/06/28 01:16:39;;;;;;;4.00;1.80;;;22.20;51.50;;;;;;7371827;19;20110;-83
2022/06/28 01:19:11;;;;;;;5.70;1.63;;;22.10;51.60;;;;;;7373128;19;20082;-83
2022/06/28 01:21:40;;;;;;;;;;;22.10;51.90;;;;;;7372003;19;20110;-83
2022/06/28 01:24:11;;;;;;;7.10;1.73;;;22.10;52.00;;;;;;7374192;19;19973;-82
2022/06/28 01:26:42;;;;;;;3.22;1.08;;;22.00;52.00;;;;;;7394973;19;20102;-82
2022/06/28 01:29:10;;;;;;;3.53;1.45;;;22.00;52.20;;;;;;7373628;19;20011;-83
2022/06/28 01:31:39;;;;;;;3.58;1.23;;;22.00;52.00;;;;;;7372525;19;20010;-82
2022/06/28 01:34:09;;;;;;;2.70;1.52;;;22.00;52.00;;;;;;7372259;19;20019;-82
2022/06/28 01:36:38;;;;;;;2.80;1.13;;;21.90;52.10;;;;;;7372809;19;20018;-82
2022/06/28 01:39:07;;;;;;;6.15;1.60;;;21.90;52.30;;;;;;7373090;19;20029;-82
2022/06/28 01:41:38;;;;;;;6.43;1.40;;;21.80;52.40;;;;;;7392266;19;20010;-83
2022/06/28 01:44:09;;;;;;;3.17;1.30;;;21.80;52.40;;;;;;7372155;19;20531;-83
2022/06/28 01:46:39;;;;;;;3.55;1.42;;;21.80;52.40;;;;;;7371975;19;20090;-81
2022/06/28 01:49:09;;;;;;;4.85;1.58;;;21.70;52.40;;;;;;7372410;19;20026;-83
2022/06/28 01:51:38;;;;;;;3.70;1.27;;;21.70;52.70;;;;;;7371250;19;20011;-82
2022/06/28 01:54:07;;;;;;;5.80;1.50;;;21.70;52.40;;;;;;7371677;19;20010;-83
2022/06/28 01:56:38;;;;;;;6.90;1.50;;;21.70;52.40;;;;;;7391167;19;20526;-82
2022/06/28 01:59:06;;;;;;;;;;;21.70;52.60;;;;;;7371420;19;20006;-83
2022/06/28 02:01:36;;;;;;;6.45;1.38;;;21.60;52.80;;;;;;7370932;19;19993;-83
2022/06/28 02:04:20;;;;;;;7.40;1.90;;;21.60;52.80;;;;;;7370911;19;20371;-83
2022/06/28 02:06:49;;;;;;;4.22;1.33;;;21.50;52.90;;;;;;7371092;19;20019;-83
2022/06/28 02:09:18;;;;;;;6.43;1.30;;;21.40;53.10;;;;;;7370578;19;20048;-82
2022/06/28 02:11:49;;;;;;;3.22;1.27;;;21.40;53.80;;;;;;7391855;19;20018;-83
2022/06/28 02:14:17;;;;;;;;;;;21.40;53.30;;;;;;7371797;19;20672;-83
2022/06/28 02:16:46;;;;;;;5.30;1.33;;;21.40;53.70;;;;;;7370929;19;20225;-84
2022/06/28 02:19:15;;;;;;;5.78;1.10;;;21.40;53.00;;;;;;7370639;19;20006;-82
2022/06/28 02:21:45;;;;;;;2.90;1.30;;;21.40;53.00;;;;;;7370730;19;20014;-83
2022/06/28 02:24:16;;;;;;;3.60;1.35;;;21.40;53.00;;;;;;7371918;19;20021;-84
2022/06/28 02:26:44;;;;;;;6.40;1.55;;;21.40;53.10;;;;;;7392218;19;20015;-82
2022/06/28 02:29:16;;;;;;;4.13;1.40;;;21.30;53.10;;;;;;7370105;19;20753;-82
2022/06/28 02:31:45;;;;;;;;;;;21.30;53.30;;;;;;7371276;19;20146;-82
2022/06/28 02:40:21;;;;;;;4.55;1.30;;;21.30;53.10;;;;;;7371312;19;19914;-82
2022/06/28 02:42:25;;;;;;;5.95;1.60;;;21.20;53.00;;;;;;7370572;19;20022;-82
2022/06/28 02:44:57;;;;;;;3.20;1.40;;;21.20;53.10;;;;;;7369767;19;20074;-82
2022/06/28 02:47:25;;;;;;;3.88;1.25;;;21.20;53.10;;;;;;7392776;19;20022;-82
2022/06/28 02:49:54;;;;;;;3.40;1.30;;;21.20;53.00;;;;;;7370323;19;20006;-83
2022/06/28 02:52:23;;;;;;;4.97;1.80;;;21.10;52.90;;;;;;7369165;19;20101;-82
2022/06/28 02:54:52;;;;;;;2.78;1.45;;;21.10;53.10;;;;;;7369760;19;20010;-83
2022/06/28 02:57:20;;;;;;;3.55;1.38;;;21.10;53.40;;;;;;7370742;19;20019;-83
2022/06/28 02:59:49;;;;;;;5.32;1.70;;;21.10;53.30;;;;;;7385208;19;20036;-82
2022/06/28 03:02:20;;;;;;;3.78;1.20;;;21.10;53.20;;;;;;7390390;19;20050;-83
2022/06/28 03:04:49;;;;;;;;;;;21.10;52.90;;;;;;7370528;19;20016;-83
2022/06/28 03:07:17;;;;;;;4.03;1.33;;;21.10;53.00;;;;;;7369414;19;19932;-83
2022/06/28 03:09:46;;;;;;;2.53;1.45;;;21.10;52.60;;;;;;7369904;19;20774;-83
2022/06/28 03:12:15;;;;;;;5.60;1.63;;;21.10;52.50;;;;;;7367871;19;20724;-82
2022/06/28 03:14:44;;;;;;;6.40;1.73;;;21.00;52.90;;;;;;7391055;19;20296;-82
2022/06/28 03:17:12;;;;;;;5.03;1.40;;;21.00;53.00;;;;;;7369382;19;20087;-82
2022/06/28 03:19:44;;;;;;;3.15;1.30;;;21.00;53.20;;;;;;7368571;19;20495;-82
2022/06/28 03:22:12;;;;;;;6.43;1.65;;;20.90;53.40;;;;;;7369396;19;20011;-83
2022/06/28 03:24:41;;;;;;;3.95;1.45;;;20.90;53.20;;;;;;7369554;19;20015;-82
2022/06/28 03:27:10;;;;;;;3.58;1.48;;;20.90;53.30;;;;;;7368454;19;20100;-82
2022/06/28 03:29:39;;;;;;;5.05;1.60;;;20.80;53.40;;;;;;7388888;19;20022;-82
2022/06/28 03:32:08;;;;;;;4.63;1.35;;;20.80;53.60;;;;;;7368825;19;20011;-82
2022/06/28 03:34:37;;;;;;;4.00;1.48;;;20.80;53.50;;;;;;7369236;19;20015;-82
2022/06/28 03:37:09;;;;;;;1.63;1.05;;;20.80;53.40;;;;;;7369083;19;20052;-83
2022/06/28 03:39:37;;;;;;;;;;;20.80;53.50;;;;;;7371321;19;20019;-82
2022/06/28 03:42:07;;;;;;;5.10;1.30;;;20.80;53.70;;;;;;7367596;19;19931;-82
2022/06/28 03:44:36;;;;;;;3.90;1.05;;;20.70;53.60;;;;;;7391484;19;20458;-82
2022/06/28 03:47:05;;;;;;;3.40;1.23;;;20.70;53.50;;;;;;7368674;19;20010;-83
2022/06/28 03:49:34;;;;;;;3.72;1.38;;;20.70;53.50;;;;;;7367897;19;20018;-82
2022/06/28 03:52:03;;;;;;;2.58;1.25;;;20.70;53.50;;;;;;7369400;19;20011;-82
2022/06/28 03:54:34;;;;;;;7.40;1.52;;;20.60;53.70;;;;;;7369311;19;20617;-81
2022/06/28 03:57:03;;;;;;;4.65;1.40;;;20.60;53.90;;;;;;7366944;19;20147;-82
2022/06/28 03:59:32;;;;;;;5.07;1.63;;;20.50;54.00;;;;;;7390231;19;20454;-82
2022/06/28 04:02:01;;;;;;;5.95;1.50;;;20.50;54.10;;;;;;7367496;19;20094;-82
2022/06/28 04:04:30;;;;;;;2.67;1.30;;;20.50;54.30;;;;;;7369033;19;20801;-83
2022/06/28 04:06:58;;;;;;;4.32;1.50;;;20.40;54.40;;;;;;7368626;19;20014;-82
2022/06/28 04:09:27;;;;;;;4.63;1.88;;;20.40;54.40;;;;;;7369266;19;20039;-81
2022/06/28 04:11:58;;;;;;;3.58;1.70;;;20.40;54.30;;;;;;7366490;19;20107;-81
2022/06/28 04:14:27;;;;;;;;;;;20.40;54.30;;;;;;7390482;19;20633;-82
2022/06/28 04:16:56;;;;;;;3.05;1.48;;;20.30;54.60;;;;;;7368889;19;20382;-82
2022/06/28 04:19:24;;;;;;;6.80;1.63;;;20.30;54.70;;;;;;7370622;19;20090;-83
2022/06/28 04:21:53;;;;;;;4.85;1.92;;;20.30;54.90;;;;;;7369263;19;20018;-83
2022/06/28 04:24:22;;;;;;;3.15;1.38;;;20.20;55.10;;;;;;7367783;19;20018;-83
2022/06/28 04:26:51;;;;;;;5.25;1.90;;;20.20;55.20;;;;;;7375279;19;20010;-79
2022/06/28 04:29:22;;;;;;;15.40;8.27;;;20.20;55.30;;;;;;7392462;19;20087;-79
2022/06/28 04:31:51;;;;;;;13.52;6.78;;;20.20;55.10;;;;;;7372833;19;20121;-79
2022/06/28 04:34:19;;;;;;;34.97;23.73;;;20.30;55.10;;;;;;7374134;19;20052;-79
2022/06/28 04:36:48;;;;;;;6.18;3.15;;;20.30;55.10;;;;;;7371842;19;20021;-80
2022/06/28 04:39:17;;;;;;;11.63;5.60;;;20.30;55.20;;;;;;7375405;19;20010;-79
2022/06/28 04:41:46;;;;;;;9.73;2.13;;;20.30;55.20;;;;;;7394536;19;20089;-79
2022/06/28 04:44:15;;;;;;;3.10;1.83;;;20.30;55.40;;;;;;7373668;19;20491;-79
2022/06/28 04:46:46;;;;;;;2.58;1.48;;;20.20;55.50;;;;;;7372568;19;20018;-78
2022/06/28 04:49:14;;;;;;;;;;;20.20;55.60;;;;;;7374587;19;20023;-78
2022/06/28 04:51:43;;;;;;;7.47;1.75;;;20.30;55.60;;;;;;7371653;19;19919;-78
2022/06/28 04:54:12;;;;;;;2.67;1.48;;;20.30;55.60;;;;;;7371577;19;20014;-77
2022/06/28 04:56:41;;;;;;;20.33;12.20;;;20.30;55.70;;;;;;7396144;19;20071;-79
2022/06/28 04:59:10;;;;;;;5.75;3.30;;;20.40;55.40;;;;;;7372683;19;20363;-77
2022/06/28 05:01:38;;;;;;;6.57;2.65;;;20.50;55.40;;;;;;7371948;19;20439;-77
2022/06/28 05:04:10;;;;;;;4.55;2.55;;;20.50;55.50;;;;;;7376291;19;20102;-80
2022/06/28 05:06:38;;;;;;;;;;;20.50;55.60;;;;;;7377093;19;20506;-79
2022/06/28 05:09:07;;;;;;;3.08;1.73;;;20.50;55.60;;;;;;7378733;19;19982;-82
2022/06/28 05:11:39;;;;;;;3.88;1.65;;;20.50;55.60;;;;;;7399192;19;20479;-84
2022/06/28 05:14:08;;;;;;;7.45;3.92;;;20.50;55.70;;;;;;7376375;19;20006;-79
2022/06/28 05:16:37;;;;;;;17.17;8.95;;;20.60;55.80;;;;;;7377271;19;20555;-80
2022/06/28 05:19:06;;;;;;;42.78;25.42;;;20.70;55.80;;;;;;7381130;19;20031;-80
2022/06/28 05:21:54;;;;;;;15.43;9.30;;;20.70;55.70;;;;;;7382831;19;20017;-81
2022/06/28 05:24:23;;;;;;;13.23;8.50;;;20.70;55.80;;;;;;7385568;19;20010;-82
2022/06/28 05:26:52;;;;;;;8.52;1.83;;;20.80;56.20;;;;;;7387881;19;20021;-81
2022/06/28 05:29:21;;;;;;;5.55;1.70;;;20.80;56.00;;;;;;7420199;19;20020;-82
2022/06/28 05:31:58;;;;;;;6.00;1.90;;;20.80;55.90;;;;;;7399406;19;20018;-81
2022/06/28 05:34:27;;;;;;;9.50;2.75;;;20.80;56.00;;;;;;7395234;19;20010;-81
2022/06/28 05:36:59;;;;;;;7.95;2.40;;;20.80;56.30;;;;;;7386883;19;20038;-82
2022/06/28 05:39:28;;;;;;;5.13;2.00;;;20.90;56.40;;;;;;7390115;19;20089;-81
2022/06/28 05:41:58;;;;;;;8.68;2.50;;;21.00;56.40;;;;;;7386585;19;20011;-82
2022/06/28 05:47:48;;;;;;;6.90;2.17;;;21.20;56.10;;;;;;7356098;19;20048;-83
2022/06/28 05:50:24;;;;;;;5.30;2.25;;;21.30;56.10;;;;;;7397021;19;20576;-81
2022/06/28 05:53:00;;;;;;;5.38;1.98;;;21.30;56.00;;;;;;7373977;19;20014;-81
2022/06/28 05:55:31;;;;;;;5.95;1.95;;;21.40;56.00;;;;;;7372721;19;20023;-82
2022/06/28 05:58:01;;;;;;;5.75;1.90;;;21.40;56.20;;;;;;7374141;19;20015;-81
2022/06/28 06:00:43;;;;;;;6.13;1.98;;;21.40;56.20;;;;;;7376996;19;20007;-83
2022/06/28 06:03:50;;;;;;;5.55;1.88;;;21.50;56.30;;;;;;7373680;19;20018;-83
2022/06/28 06:07:30;;;;;;;6.03;1.75;;;21.50;56.20;;;;;;7378384;19;20042;-84
2022/06/28 06:13:41;;;;;;;5.47;1.40;;;21.60;55.60;;;;;;7367483;19;20039;-81
2022/06/28 06:16:52;;;;;;;5.40;1.42;;;21.70;55.40;;;;;;7373079;19;20077;-82
2022/06/28 06:20:35;;;;;;;7.43;1.70;;;21.80;55.30;;;;;;7370694;19;20015;-82
2022/06/28 06:23:38;;;;;;;14.85;1.95;;;21.90;55.10;;;;;;7325917;19;20015;-82
2022/06/28 06:26:16;;;;;;;6.30;1.40;;;22.00;55.00;;;;;;7372492;19;20442;-84
2022/06/28 06:32:16;;;;;;;2.42;1.15;;;22.00;52.80;;;;;;7370947;19;20010;-82
2022/06/28 06:34:52;;;;;;;5.05;1.25;;;22.10;52.50;;;;;;7371087;19;20056;-82
2022/06/28 06:37:21;;;;;;;3.47;1.02;;;22.20;52.40;;;;;;7372549;19;20038;-81
2022/06/28 06:39:50;;;;;;;4.75;1.10;;;22.20;52.30;;;;;;7373601;19;20010;-81
2022/06/28 06:42:27;;;;;;;10.82;1.40;;;22.20;52.10;;;;;;7372363;19;20014;-81
2022/06/28 06:44:58;;;;;;;253.60;159.27;;;22.20;52.20;;;;;;7369510;19;20018;-82
2022/06/28 06:47:27;;;;;;;61.78;33.22;;;22.30;51.90;;;;;;7391368;19;20015;-81
2022/06/28 06:49:56;;;;;;;7.78;3.55;;;22.30;51.60;;;;;;7369632;19;20002;-80
2022/06/28 06:52:25;;;;;;;8.82;2.97;;;22.40;51.40;;;;;;7369962;19;20018;-81
2022/06/28 06:54:53;;;;;;;7.30;1.88;;;22.40;51.20;;;;;;7368760;19;20018;-79
2022/06/28 06:57:22;;;;;;;5.18;1.67;;;22.40;51.30;;;;;;7369123;19;20034;-79
2022/06/28 06:59:51;;;;;;;7.28;1.50;;;22.40;51.00;;;;;;7370894;19;20014;-80
2022/06/28 07:02:23;;;;;;;4.43;1.23;;;22.50;51.00;;;;;;7384867;19;20015;-80
2022/06/28 07:04:51;;;;;;;5.45;1.20;;;22.50;51.10;;;;;;7366617;19;20018;-80
2022/06/28 07:07:20;;;;;;;4.93;1.20;;;22.50;51.00;;;;;;7369200;19;20042;-81
2022/06/28 07:09:49;;;;;;;5.10;1.60;;;22.50;51.00;;;;;;7369948;19;20038;-80
2022/06/28 07:12:18;;;;;;;5.13;1.25;;;22.50;51.00;;;;;;7369728;19;20018;-81
2022/06/28 07:14:47;;;;;;;7.65;1.30;;;22.60;51.10;;;;;;7391812;19;20028;-80
2022/06/28 07:17:16;;;;;;;3.72;1.17;;;22.60;50.60;;;;;;7369563;19;20086;-81
2022/06/28 07:19:47;;;;;;;9.50;1.42;;;22.60;50.80;;;;;;7369691;19;20015;-81
2022/06/28 07:22:16;;;;;;;8.27;1.30;;;22.60;51.00;;;;;;7369075;19;20011;-80
2022/06/28 07:24:45;;;;;;;5.78;1.40;;;22.60;50.80;;;;;;7370323;19;20014;-80
2022/06/28 07:27:14;;;;;;;4.88;1.20;;;22.70;50.90;;;;;;7370604;19;20016;-81
2022/06/28 07:29:42;;;;;;;10.05;1.60;;;22.70;51.00;;;;;;7391083;19;20030;-81
2022/06/28 07:32:11;;;;;;;4.85;1.80;;;22.80;51.70;;;;;;7368983;19;20022;-81
2022/06/28 07:34:40;;;;;;;5.63;1.70;;;22.80;50.80;;;;;;7369508;19;21042;-80
2022/06/28 07:37:12;;;;;;;5.00;1.27;;;22.80;50.90;;;;;;7368888;19;20019;-80
2022/06/28 07:39:43;;;;;;;4.45;1.40;;;22.80;50.60;;;;;;7368291;19;20078;-80
2022/06/28 07:42:12;;;;;;;9.18;1.30;;;22.80;50.40;;;;;;7369329;19;20026;-81
2022/06/28 07:44:41;;;;;;;4.75;1.40;;;22.90;50.80;;;;;;7391219;19;20014;-81
2022/06/28 07:47:10;;;;;;;5.90;1.52;;;22.90;50.50;;;;;;7369814;19;20082;-79
2022/06/28 07:52:38;;;;;;;8.57;1.85;;;23.00;50.10;;;;;;7368857;19;20026;-81
2022/06/28 07:55:09;;;;;;;4.15;1.30;;;22.90;50.00;;;;;;7368347;19;20086;-81
2022/06/28 07:57:38;;;;;;;9.38;1.38;;;23.00;50.10;;;;;;7370355;19;20034;-79
2022/06/28 08:00:10;;;;;;;4.28;1.30;;;23.00;50.10;;;;;;7369648;19;20455;-81
2022/06/28 08:02:39;;;;;;;7.07;1.42;;;23.00;50.10;;;;;;7396906;19;20098;-79
2022/06/28 08:05:09;;;;;;;123.32;77.38;;;23.10;50.10;;;;;;7390411;19;20098;-86
2022/06/28 08:07:40;;;;;;;70.53;39.90;;;23.10;50.00;;;;;;7402738;19;20006;-87
2022/06/28 08:10:11;;;;;;;22.17;10.32;;;23.10;49.90;;;;;;7324912;19;20018;-85
2022/06/28 08:12:41;;;;;;;13.55;6.35;;;23.20;50.10;;;;;;7359996;19;20024;-82
2022/06/28 08:15:12;;;;;;;6.57;3.00;;;23.20;49.90;;;;;;7390988;19;20024;-90
2022/06/28 08:20:16;;;;;;;9.25;2.10;;;23.20;49.60;;;;;;7252758;19;21404;-89
2022/06/28 08:22:47;;;;;;;12.50;1.73;;;23.20;49.80;;;;;;7402297;19;20028;-91
2022/06/28 08:35:38;;;;;;;7.80;1.92;;;23.30;49.50;;;;;;7395919;19;20003;-93
2022/06/28 08:40:39;;;;;;;9.07;1.77;;;23.30;49.30;;;;;;7403302;19;20006;-91
2022/06/28 08:53:23;;;;;;;3.97;1.02;;;23.40;46.50;;;;;;7372012;19;21066;-80
2022/06/28 08:55:54;;;;;;;5.75;1.40;;;23.40;45.70;;;;;;7348431;19;20014;-91
2022/06/28 08:58:24;;;;;;;;;;;23.40;45.80;;;;;;7322275;19;20018;-89
2022/06/28 09:00:53;;;;;;;4.20;0.93;;;23.50;46.00;;;;;;7351138;19;19947;-85
2022/06/28 09:03:22;;;;;;;3.63;1.00;;;23.50;44.90;;;;;;7409317;19;20011;-91
2022/06/28 09:05:51;;;;;;;2.47;0.90;;;23.50;44.60;;;;;;7405502;19;20020;-90
2022/06/28 09:10:59;;;;;;;1.73;0.80;;;23.50;44.00;;;;;;7242617;19;20407;-90
2022/06/28 09:13:28;;;;;;;7.13;1.10;;;23.50;44.10;;;;;;7340858;19;20333;-89
2022/06/28 09:18:46;;;;;;;4.00;1.25;;;23.50;44.60;;;;;;7374257;19;20010;-82
2022/06/28 09:21:17;;;;;;;4.53;1.23;;;23.50;44.60;;;;;;7291611;19;20168;-91
2022/06/28 09:31:27;;;;;;;12.75;1.55;;;23.70;45.50;;;;;;7409523;19;20034;-92
2022/06/28 09:36:23;;;;;;;3.97;1.17;;;23.80;46.00;;;;;;7376955;19;20235;-81
2022/06/28 09:38:53;;;;;;;3.05;1.20;;;23.80;44.00;;;;;;7336742;19;20010;-88
2022/06/28 09:46:35;;;;;;;4.00;1.00;;;23.70;43.40;;;;;;7317711;19;20371;-83
2022/06/28 09:51:40;;;;;;;2.35;1.08;;;23.90;43.50;;;;;;7328299;19;20007;-92
2022/06/28 09:54:12;;;;;;;3.55;1.17;;;23.80;41.90;;;;;;7283327;19;21066;-82
2022/06/28 09:56:43;;;;;;;125.60;90.15;;;23.80;42.20;;;;;;7399584;19;20021;-84
2022/06/28 09:59:13;;;;;;;9.35;3.45;;;23.90;42.10;;;;;;7374075;19;20082;-79
2022/06/28 10:01:45;;;;;;;6.22;1.70;;;23.90;41.70;;;;;;7372218;19;20022;-78
2022/06/28 10:04:14;;;;;;;4.13;1.50;;;23.80;41.50;;;;;;7371749;19;20362;-80
2022/06/28 10:06:43;;;;;;;3.75;1.10;;;23.90;42.20;;;;;;7373439;19;20014;-79
2022/06/28 10:09:12;;;;;;;2.90;1.05;;;23.90;41.80;;;;;;7370043;19;20030;-78
2022/06/28 11:31:11;;;;;;;3.42;2.28;;;25.10;39.70;;;;;;7292060;19;20069;-86
2022/06/28 11:33:40;;;;;;;58.55;38.58;;;25.20;39.90;;;;;;7400290;19;20313;-82
2022/06/28 11:36:09;;;;;;;5.03;2.25;;;25.30;40.40;;;;;;7378073;19;20023;-82
2022/06/28 11:38:38;;;;;;;20.02;1.50;;;25.40;40.50;;;;;;7399228;19;20082;-83
2022/06/28 11:55:29;;;;;;;9.75;1.50;;;25.80;38.30;;;;;;7397319;19;20018;-85
2022/06/28 11:58:38;;;;;;;4.10;1.10;;;25.90;38.10;;;;;;7381922;19;20010;-84
2022/06/28 12:05:01;;;;;;;3.78;1.25;;;25.90;37.40;;;;;;7338970;19;20475;-85
2022/06/28 12:07:46;;;;;;;2.42;1.30;;;25.90;36.50;;;;;;7375262;19;20021;-84
2022/06/28 12:19:48;;;;;;;4.00;1.15;;;25.90;36.80;;;;;;7284654;19;20498;-84
2022/06/28 12:29:24;;;;;;;3.20;0.93;;;26.10;36.60;;;;;;7330318;19;20018;-86
2022/06/28 12:32:25;;;;;;;1.80;0.80;;;26.20;36.00;;;;;;7372273;19;20015;-85
2022/06/28 12:35:07;;;;;;;4.03;1.20;;;26.20;37.00;;;;;;7336043;19;20015;-85
2022/06/28 12:37:54;;;;;;;8.15;1.35;;;26.20;36.20;;;;;;7334166;19;20010;-85
2022/06/28 12:44:07;;;;;;;4.32;1.05;;;26.20;37.40;;;;;;7371428;19;20029;-85
2022/06/28 12:50:19;;;;;;;2.28;0.95;;;26.50;35.60;;;;;;7392305;19;20026;-85
2022/06/28 12:53:01;;;;;;;2.08;0.90;;;26.60;35.30;;;;;;7371891;19;20014;-84
2022/06/28 12:55:38;;;;;;;4.85;1.27;;;26.80;35.40;;;;;;7373892;19;20070;-84
2022/06/28 12:58:29;;;;;;;2.70;0.90;;;26.90;34.30;;;;;;7371888;19;20015;-85
2022/06/28 13:01:02;;;;;;;;;;;26.90;34.40;;;;;;7370549;19;20014;-84
2022/06/28 13:03:40;;;;;;;4.10;0.90;;;27.00;34.70;;;;;;7332675;19;19915;-84
2022/06/28 13:06:14;;;;;;;1.88;0.75;;;27.00;34.90;;;;;;7372835;19;20023;-84
2022/06/28 13:09:02;;;;;;;4.72;0.82;;;27.00;35.80;;;;;;7394026;19;20419;-84
2022/06/28 13:11:36;;;;;;;2.28;0.75;;;27.00;35.10;;;;;;7373577;19;20074;-85
2022/06/28 13:21:52;;;;;;;4.20;0.93;;;27.40;33.60;;;;;;7170052;19;2004438;-85
2022/06/28 13:28:12;;;;;;;2.53;0.73;;;27.60;33.10;;;;;;7375177;19;20030;-86
2022/06/28 13:31:03;;;;;;;4.63;1.02;;;27.50;33.10;;;;;;7374469;19;20042;-84
2022/06/28 13:33:32;;;;;;;3.53;1.05;;;27.50;32.70;;;;;;7372109;19;20010;-83
2022/06/28 13:36:02;;;;;;;1.13;0.60;;;27.40;33.00;;;;;;7374846;19;20014;-83
2022/06/28 13:38:33;;;;;;;2.63;1.15;;;27.30;32.50;;;;;;7394856;19;20114;-84
2022/06/28 13:41:03;;;;;;;1.52;0.73;;;27.40;33.20;;;;;;7373348;19;20018;-83
2022/06/28 13:43:45;;;;;;;13.85;1.15;;;27.40;33.30;;;;;;7372861;19;20021;-84
2022/06/28 13:46:30;;;;;;;4.10;1.10;;;27.40;33.50;;;;;;7375148;19;20017;-84
2022/06/28 13:49:05;;;;;;;1.45;0.85;;;27.50;33.50;;;;;;7376542;19;20099;-84
2022/06/28 13:51:55;;;;;;;1.05;0.75;;;27.50;33.30;;;;;;7382566;19;20030;-85
2022/06/28 13:55:05;;;;;;;2.53;1.20;;;27.60;33.50;;;;;;7377238;19;20022;-84
2022/06/28 13:57:35;;;;;;;2.00;1.05;;;27.80;33.40;;;;;;7375671;19;20017;-83
2022/06/28 14:00:19;;;;;;;9.60;1.10;;;27.90;32.70;;;;;;7337613;19;20015;-83
2022/06/28 14:02:54;;;;;;;1.95;0.90;;;28.00;33.20;;;;;;7394328;19;20015;-84
2022/06/28 14:05:23;;;;;;;3.00;0.80;;;28.10;33.20;;;;;;7374952;19;20341;-84
2022/06/28 14:07:53;;;;;;;1.98;0.85;;;28.10;32.90;;;;;;7374683;19;20019;-83
2022/06/28 14:10:38;;;;;;;2.63;0.80;;;28.10;33.40;;;;;;7373474;19;20054;-84
2022/06/28 14:13:10;;;;;;;1.73;0.70;;;28.20;32.90;;;;;;7375602;19;20782;-82
2022/06/28 14:15:39;;;;;;;6.20;0.85;;;28.30;32.20;;;;;;7378334;19;20380;-81
2022/06/28 14:18:20;;;;;;;2.35;0.80;;;28.40;32.70;;;;;;7383626;19;20039;-84
2022/06/28 14:20:49;;;;;;;3.50;0.90;;;28.50;32.30;;;;;;7403460;19;20108;-83
2022/06/28 14:23:43;;;;;;;2.78;0.90;;;28.60;32.10;;;;;;7382806;19;20014;-83
2022/06/28 14:27:00;;;;;;;4.57;1.15;;;28.50;30.90;;;;;;7336480;19;20018;-87
2022/06/28 14:29:41;;;;;;;4.70;0.93;;;28.40;31.00;;;;;;7410714;19;20038;-83
2022/06/28 14:39:34;;;;;;;5.07;1.20;;;28.40;32.20;;;;;;7269831;19;2004366;-85
2022/06/28 14:42:36;;;;;;;4.35;1.05;;;28.50;32.30;;;;;;7371627;19;20037;-85
2022/06/28 14:52:19;;;;;;;4.78;1.35;;;28.80;31.30;;;;;;7373595;19;20014;-86
2022/06/28 14:55:59;;;;;;;3.42;0.88;;;28.80;31.20;;;;;;7221141;19;20711;-86
2022/06/28 14:59:29;;;;;;;2.58;1.05;;;28.70;31.90;;;;;;7392499;19;20017;-86
2022/06/28 15:05:37;;;;;;;4.00;1.17;;;28.80;30.60;;;;;;7371946;19;20018;-84
2022/06/28 15:19:36;;;;;;;5.72;1.00;;;28.40;31.60;;;;;;7370549;19;20090;-84
2022/06/28 16:16:10;;;;;;;4.35;1.02;;;37.30;23.80;;;;;;7266339;19;2004135;-85
2022/06/28 16:22:45;;;;;;;3.47;0.85;;;37.70;24.10;;;;;;7276263;19;20438;-86
2022/06/28 16:25:48;;;;;;;2.03;0.70;;;38.10;23.40;;;;;;7394547;19;20015;-85
2022/06/28 16:34:55;;;;;;;5.30;1.58;;;38.20;23.40;;;;;;7400341;19;20015;-84
2022/06/28 20:32:09;;;;;;;195.32;124.97;;;27.30;39.40;;;;;;7374400;19;20021;-85
